Time;durP1;ratioP1;P1;durP2;ratioP2;P2;SDS_P1;SDS_P2;PMS_P1;PMS_P2;Temp;Humidity;BMP_temperature;BMP_pressure;BME280_temperature;BME280_humidity;BME280_pressure;Samples;Min_cycle;Max_cycle;Signal;HPM_P1;HPM_P2
2024/05/05 00:01:12;;;;;;;16.02;7.93;;;;;;;10.00;90.27;99402.53;5009194;28;19998;-96
2024/05/05 00:03:38;;;;;;;13.68;6.75;;;;;;;9.88;89.95;99385.81;5009666;28;20003;-95
2024/05/05 00:06:04;;;;;;;12.23;7.18;;;;;;;9.93;89.99;99395.78;5008086;28;20031;-95
2024/05/05 00:08:32;;;;;;;10.93;7.00;;;;;;;9.77;89.62;99376.06;5009891;28;20002;-95
2024/05/05 00:10:58;;;;;;;10.30;6.60;;;;;;;9.83;89.31;99391.16;5034169;28;20013;-96
2024/05/05 00:13:26;;;;;;;11.90;6.75;;;;;;;9.81;88.84;99377.16;5008940;28;20074;-96
2024/05/05 00:15:56;;;;;;;11.95;7.95;;;;;;;9.76;89.16;99377.97;5011782;28;19998;-95
2024/05/05 00:18:25;;;;;;;9.25;6.90;;;;;;;9.92;87.99;99386.91;5012926;28;20014;-96
2024/05/05 00:20:53;;;;;;;13.73;6.95;;;;;;;9.90;88.42;99403.31;5012896;28;20034;-96
2024/05/05 00:23:20;;;;;;;10.68;7.03;;;;;;;9.75;88.99;99383.59;5011442;28;20003;-96
2024/05/05 00:25:46;;;;;;;9.88;7.00;;;;;;;9.79;88.91;99390.88;5012986;28;20443;-93
2024/05/05 00:28:12;;;;;;;15.25;6.72;;;;;;;9.72;88.78;99387.63;5036930;28;20013;-95
2024/05/05 00:30:41;;;;;;;11.10;7.00;;;;;;;9.60;88.99;99397.78;5011517;28;19999;-95
2024/05/05 00:33:10;;;;;;;13.70;6.72;;;;;;;9.58;88.55;99389.97;5012756;28;20153;-96
2024/05/05 00:35:38;;;;;;;11.52;6.10;;;;;;;9.60;88.73;99411.22;5013664;28;20006;-96
2024/05/05 00:38:04;;;;;;;10.48;6.85;;;;;;;9.43;87.97;99387.22;5013228;28;20002;-95
2024/05/05 00:40:31;;;;;;;15.38;7.18;;;;;;;9.46;88.09;99398.25;5011958;28;20307;-95
2024/05/05 00:43:00;;;;;;;11.38;6.53;;;;;;;9.53;88.21;99421.41;5011353;28;20005;-95
2024/05/05 00:45:28;;;;;;;12.38;5.85;;;;;;;9.49;88.08;99415.75;5037970;28;20007;-96
2024/05/05 00:47:54;;;;;;;10.00;6.22;;;;;;;9.29;87.85;99390.34;5013995;28;20017;-95
2024/05/05 00:50:23;;;;;;;14.90;6.40;;;;;;;9.44;87.54;99432.66;5011153;28;20006;-95
2024/05/05 00:52:49;;;;;;;14.50;6.72;;;;;;;9.26;88.18;99401.63;5012520;28;20025;-95
2024/05/05 00:55:18;;;;;;;8.82;6.50;;;;;;;9.18;88.63;99426.28;5011953;28;20360;-96
2024/05/05 00:57:47;;;;;;;11.57;6.78;;;;;;;9.13;89.20;99428.09;5012374;28;20006;-96
2024/05/05 01:00:16;;;;;;;8.82;6.53;;;;;;;9.09;89.34;99415.22;5013623;28;20002;-95
2024/05/05 01:02:42;;;;;;;12.45;6.85;;;;;;;9.24;88.72;99436.00;5013750;28;20615;-96
2024/05/05 01:05:07;;;;;;;13.80;7.25;;;;;;;8.98;89.22;99405.44;5012289;28;20006;-96
2024/05/05 01:07:33;;;;;;;9.68;6.53;;;;;;;9.10;89.91;99451.72;5036230;28;20043;-96
2024/05/05 01:10:02;;;;;;;13.93;6.75;;;;;;;9.05;90.14;99437.47;5011523;28;20304;-96
2024/05/05 01:12:31;;;;;;;13.63;7.13;;;;;;;9.02;89.93;99440.66;5010778;28;20006;-96
2024/05/05 01:14:57;;;;;;;14.13;7.25;;;;;;;8.81;90.65;99419.00;5017417;28;20002;-95
2024/05/05 01:17:24;;;;;;;11.18;7.13;;;;;;;8.96;89.78;99450.53;5044045;28;20021;-96
2024/05/05 01:19:50;;;;;;;13.13;8.10;;;;;;;8.72;90.09;99411.69;5044322;28;20002;-96
2024/05/05 01:22:15;;;;;;;13.75;8.00;;;;;;;8.75;89.86;99422.72;5011842;28;20003;-96
2024/05/05 01:24:42;;;;;;;13.63;9.82;;;;;;;8.99;90.52;99455.41;5011786;28;20006;-95
2024/05/05 01:27:10;;;;;;;17.52;10.70;;;;;;;9.08;90.60;99453.06;5037493;28;19998;-96
2024/05/05 01:29:36;;;;;;;21.88;12.57;;;;;;;9.00;88.92;99416.75;5012433;28;20030;-96
2024/05/05 01:32:04;;;;;;;21.15;11.30;;;;;;;9.13;88.26;99423.56;5012676;28;20014;-96
2024/05/05 01:34:30;;;;;;;23.20;12.80;;;;;;;9.16;89.17;99423.03;5012227;28;20010;-96
2024/05/05 01:36:55;;;;;;;22.15;12.60;;;;;;;9.06;89.55;99415.72;5012237;28;20384;-96
2024/05/05 01:39:21;;;;;;;21.88;12.88;;;;;;;9.23;90.29;99449.69;5012712;28;20010;-96
2024/05/05 01:41:47;;;;;;;22.65;12.48;;;;;;;9.18;90.29;99446.97;5011728;28;20003;-95
2024/05/05 01:44:13;;;;;;;21.33;11.48;;;;;;;9.02;90.17;99427.22;5012189;28;20002;-96
2024/05/05 01:46:47;;;;;;;21.27;11.38;;;;;;;9.26;90.14;99457.25;5037630;28;20153;-96
2024/05/05 01:49:13;;;;;;;14.85;10.00;;;;;;;9.27;89.05;99427.41;5016153;28;19999;-95
2024/05/05 01:51:39;;;;;;;17.17;8.65;;;;;;;9.55;87.75;99459.59;5037559;28;19999;-95
2024/05/05 01:54:04;;;;;;;15.48;8.52;;;;;;;9.47;87.39;99455.50;5011011;28;20477;-95
2024/05/05 01:56:31;;;;;;;25.30;8.57;;;;;;;9.40;86.60;99439.59;5013882;28;20014;-96
2024/05/05 01:58:57;;;;;;;22.13;8.10;;;;;;;9.43;86.05;99433.69;5014634;28;20006;-95
2024/05/05 02:01:27;;;;;;;16.25;7.55;;;;;;;9.63;85.67;99459.06;5014169;28;19995;-96
2024/05/05 02:03:53;;;;;;;12.90;7.03;;;;;;;9.53;85.78;99442.91;5016096;28;20002;-96
2024/05/05 02:06:22;;;;;;;10.77;7.70;;;;;;;9.48;87.56;99452.56;5015359;28;20002;-95
2024/05/05 02:08:49;;;;;;;8.10;6.47;;;;;;;9.49;86.36;99432.66;5013006;28;20011;-94
2024/05/05 02:11:19;;;;;;;14.55;8.05;;;;;;;9.71;86.08;99454.03;5036654;28;20030;-95
2024/05/05 02:13:44;;;;;;;35.70;13.35;;;;;;;9.73;85.78;99459.13;5038454;28;20017;-95
2024/05/05 02:16:10;;;;;;;23.73;13.20;;;;;;;9.69;85.42;99453.50;5011994;28;20423;-95
2024/05/05 02:18:42;;;;;;;26.85;11.88;;;;;;;9.76;85.19;99465.91;5012742;28;20018;-95
2024/05/05 02:21:07;;;;;;;26.48;14.27;;;;;;;9.69;85.30;99466.09;5012417;27;20014;-95
2024/05/05 02:23:33;;;;;;;27.38;12.18;;;;;;;9.59;85.35;99455.31;5011588;27;19998;-96
2024/05/05 02:25:59;;;;;;;24.17;12.52;;;;;;;9.54;85.25;99452.56;5012153;28;20440;-96
2024/05/05 02:28:36;;;;;;;22.65;12.82;;;;;;;9.47;85.50;99442.06;5014603;28;19991;-96
2024/05/05 02:31:03;;;;;;;27.77;11.52;;;;;;;9.63;85.49;99464.44;5017217;28;20014;-95
2024/05/05 02:33:29;;;;;;;24.45;12.40;;;;;;;9.65;85.98;99467.69;5011684;28;20002;-96
2024/05/05 02:35:54;;;;;;;45.30;13.05;;;;;;;9.59;85.56;99458.81;5012472;28;20018;-96
2024/05/05 02:38:20;;;;;;;27.58;11.95;;;;;;;9.66;85.19;99464.75;5037735;27;20438;-95
2024/05/05 02:40:48;;;;;;;14.88;10.05;;;;;;;9.70;85.83;99471.22;5013185;28;20002;-96
2024/05/05 02:43:15;;;;;;;19.52;9.63;;;;;;;9.51;85.05;99437.78;5014340;28;20003;-96
2024/05/05 02:45:49;;;;;;;12.95;7.32;;;;;;;9.68;84.77;99478.75;5014011;28;19998;-95
2024/05/05 02:48:14;;;;;;;12.27;6.70;;;;;;;9.57;84.08;99466.31;5014545;27;20043;-96
2024/05/05 02:50:43;;;;;;;9.18;4.90;;;;;;;9.51;84.01;99461.97;5012855;28;20007;-95
2024/05/05 02:53:11;;;;;;;8.57;4.47;;;;;;;9.41;83.64;99449.28;5012870;28;19998;-95
2024/05/05 02:55:39;;;;;;;8.48;4.40;;;;;;;9.47;83.11;99467.06;5011657;28;20175;-94
2024/05/05 02:58:05;;;;;;;5.28;3.88;;;;;;;9.56;83.22;99488.06;5013713;27;20030;-94
2024/05/05 03:00:31;;;;;;;5.70;3.45;;;;;;;9.41;83.79;99478.84;5012947;28;20006;-95
2024/05/05 03:02:56;;;;;;;8.15;4.03;;;;;;;9.43;85.02;99492.81;5011169;28;20002;-96
2024/05/05 03:05:22;;;;;;;7.95;4.35;;;;;;;9.08;86.21;99461.13;5010779;28;20010;-94
2024/05/05 03:07:48;;;;;;;6.00;4.45;;;;;;;9.04;86.41;99462.69;5012687;28;20086;-95
2024/05/05 03:10:14;;;;;;;7.38;4.30;;;;;;;9.17;86.77;99499.06;5011377;27;20006;-95
2024/05/05 03:12:44;;;;;;;17.88;5.20;;;;;;;9.20;85.39;99487.81;5010275;28;20006;-95
2024/05/05 03:15:11;;;;;;;13.95;5.53;;;;;;;9.35;84.56;99504.06;5011855;28;20034;-96
2024/05/05 03:17:36;;;;;;;5.78;4.53;;;;;;;9.24;84.52;99481.66;5011257;27;20014;-96
2024/05/05 03:20:03;;;;;;;13.63;5.78;;;;;;;9.38;84.26;99502.72;5010210;28;20014;-95
2024/05/05 03:22:28;;;;;;;9.52;5.53;;;;;;;9.53;84.12;99518.19;5011400;28;19998;-96
2024/05/05 03:24:57;;;;;;;13.40;6.50;;;;;;;9.54;84.07;99517.91;5011830;28;20002;-96
2024/05/05 03:27:23;;;;;;;13.07;6.68;;;;;;;9.47;83.81;99514.63;5036614;28;20003;-95
2024/05/05 03:29:49;;;;;;;12.30;7.05;;;;;;;9.51;83.78;99526.50;5010018;28;20477;-95
2024/05/05 03:32:14;;;;;;;12.85;7.50;;;;;;;9.44;83.67;99507.06;5010135;28;19998;-96
2024/05/05 03:34:40;;;;;;;20.67;8.85;;;;;;;9.61;84.16;99531.13;5011863;28;20008;-96
2024/05/05 03:37:08;;;;;;;13.55;8.95;;;;;;;9.59;84.24;99517.16;5010358;28;19999;-96
2024/05/05 03:39:34;;;;;;;19.50;11.43;;;;;;;9.63;84.33;99540.56;5016167;28;20013;-94
2024/05/05 03:42:03;;;;;;;18.92;11.52;;;;;;;9.51;83.73;99508.47;5010001;28;20002;-96
2024/05/05 03:44:28;;;;;;;24.27;10.88;;;;;;;9.67;84.02;99532.75;5011873;28;20014;-95
2024/05/05 03:46:56;;;;;;;23.60;12.05;;;;;;;9.48;86.21;99529.66;5011019;28;19999;-96
2024/05/05 03:49:25;;;;;;;34.97;13.88;;;;;;;9.37;86.93;99520.72;5061451;28;20006;-95
2024/05/05 03:51:51;;;;;;;24.77;13.57;;;;;;;9.16;87.81;99509.00;5010256;28;20006;-96
2024/05/05 03:54:17;;;;;;;29.77;14.70;;;;;;;9.36;88.32;99539.78;5011283;28;20009;-96
2024/05/05 03:56:42;;;;;;;34.97;14.93;;;;;;;9.29;88.37;99543.50;5036149;28;20002;-96
2024/05/05 03:59:08;;;;;;;28.48;14.98;;;;;;;9.26;87.89;99524.41;5010831;28;20002;-96
2024/05/05 04:01:36;;;;;;;31.50;15.23;;;;;;;9.32;89.36;99542.19;5009980;28;20323;-96
2024/05/05 04:04:03;;;;;;;40.83;15.35;;;;;;;9.40;89.08;99551.66;5012963;28;20031;-96
2024/05/05 04:06:55;;;;;;;35.72;14.63;;;;;;;9.29;88.86;99538.13;5012760;28;20031;-96
2024/05/05 04:09:24;;;;;;;23.08;12.63;;;;;;;9.35;87.95;99535.50;5062329;28;20009;-95
2024/05/05 04:11:56;;;;;;;16.98;10.75;;;;;;;9.39;87.43;99539.28;5012239;28;20014;-95
2024/05/05 04:14:22;;;;;;;17.60;10.90;;;;;;;9.37;86.86;99544.91;5011933;27;20075;-96
2024/05/05 04:16:49;;;;;;;15.60;8.70;;;;;;;9.31;86.20;99543.25;5010213;28;20042;-96
2024/05/05 04:19:15;;;;;;;13.27;8.13;;;;;;;9.48;85.53;99561.94;5036263;28;20013;-96
2024/05/05 04:21:41;;;;;;;14.27;7.90;;;;;;;9.40;86.21;99547.09;5011260;28;20002;-96
2024/05/05 04:24:10;;;;;;;13.10;8.15;;;;;;;9.37;85.54;99536.03;5010404;28;20076;-96
2024/05/05 04:26:35;;;;;;;13.77;8.80;;;;;;;9.38;85.69;99546.56;5009327;28;20440;-95
2024/05/05 04:29:04;;;;;;;11.68;7.68;;;;;;;9.64;85.63;99568.25;5034702;28;19999;-94
2024/05/05 04:31:32;;;;;;;11.75;7.68;;;;;;;9.62;85.00;99562.31;5011008;28;20014;-96
2024/05/05 04:33:57;;;;;;;15.38;7.53;;;;;;;9.73;83.08;99579.31;5034929;28;20003;-95
2024/05/05 04:36:23;;;;;;;18.27;7.10;;;;;;;9.79;83.40;99581.78;5009792;28;20002;-96
2024/05/05 04:38:52;;;;;;;11.95;7.80;;;;;;;9.65;83.64;99564.47;5008452;28;20002;-96
2024/05/05 04:41:18;;;;;;;21.88;11.07;;;;;;;9.54;83.86;99557.41;5010116;28;20003;-95
2024/05/05 04:43:43;;;;;;;15.63;10.63;;;;;;;9.79;82.75;99572.91;5009450;28;19998;-96
2024/05/05 04:46:26;;;;;;;18.80;11.77;;;;;;;9.89;82.83;99575.69;5038730;28;20013;-96
2024/05/05 04:48:53;;;;;;;18.48;11.07;;;;;;;10.02;81.19;99563.66;5014996;28;20009;-96
2024/05/05 04:51:20;;;;;;;15.18;9.98;;;;;;;10.35;80.05;99567.91;5035046;28;20010;-94
2024/05/05 04:53:46;;;;;;;22.75;13.00;;;;;;;10.30;81.24;99584.84;5009621;28;20010;-96
2024/05/05 04:56:11;;;;;;;22.58;11.93;;;;;;;10.43;81.25;99583.53;5010520;28;20003;-95
2024/05/05 04:58:38;;;;;;;17.40;10.85;;;;;;;10.16;81.40;99575.56;5010202;28;20334;-96
2024/05/05 05:01:03;;;;;;;13.32;7.85;;;;;;;10.23;81.38;99578.88;5062645;28;20010;-95
2024/05/05 05:03:30;;;;;;;11.88;7.22;;;;;;;10.40;80.27;99578.69;5013256;28;20003;-96
2024/05/05 05:05:56;;;;;;;10.68;6.75;;;;;;;10.70;77.91;99598.75;5037772;28;20003;-95
2024/05/05 05:08:22;;;;;;;9.38;6.68;;;;;;;10.82;77.99;99601.22;5011379;28;20006;-94
2024/05/05 05:10:50;;;;;;;12.10;6.80;;;;;;;10.69;78.53;99586.38;5036391;28;20009;-94
2024/05/05 05:13:24;;;;;;;11.40;7.50;;;;;;;10.43;80.14;99590.81;5012965;28;20047;-94
2024/05/05 05:15:55;;;;;;;13.38;6.88;;;;;;;10.34;80.34;99592.41;5089647;28;20334;-94
2024/05/05 05:18:24;;;;;;;9.23;6.20;;;;;;;10.31;80.63;99583.78;5036608;28;20003;-95
2024/05/05 05:20:50;;;;;;;9.93;6.45;;;;;;;10.52;80.60;99616.16;5011765;28;20003;-94
2024/05/05 05:23:17;;;;;;;8.52;5.80;;;;;;;10.30;81.75;99590.22;5011023;28;20319;-96
2024/05/05 05:25:43;;;;;;;10.88;6.18;;;;;;;10.26;82.31;99589.09;5036936;28;19998;-96
2024/05/05 05:28:09;;;;;;;8.02;6.18;;;;;;;10.39;82.38;99609.38;5010846;28;20097;-96
2024/05/05 05:30:35;;;;;;;9.80;5.90;;;;;;;10.44;81.85;99622.88;5012655;28;20014;-96
2024/05/05 05:33:02;;;;;;;12.18;6.68;;;;;;;10.48;81.62;99612.41;5011889;28;20017;-95
2024/05/05 05:35:30;;;;;;;11.48;6.63;;;;;;;10.78;79.49;99627.88;5014285;28;20005;-96
2024/05/05 05:37:59;;;;;;;12.55;5.88;;;;;;;10.70;80.23;99598.75;5012691;28;20027;-96
2024/05/05 05:40:30;;;;;;;10.25;5.93;;;;;;;10.85;81.22;99614.16;5013024;28;20013;-96
2024/05/05 05:42:58;;;;;;;10.32;6.95;;;;;;;10.91;81.80;99616.63;5013878;28;20068;-95
2024/05/05 05:45:24;;;;;;;11.80;7.38;;;;;;;11.16;81.29;99623.13;5036970;28;20026;-95
2024/05/05 05:47:52;;;;;;;11.75;8.90;;;;;;;11.19;80.00;99613.72;5036737;28;20003;-96
2024/05/05 05:50:19;;;;;;;13.93;7.20;;;;;;;11.51;78.01;99608.09;5012258;28;20018;-96
2024/05/05 05:52:48;;;;;;;15.90;7.05;;;;;;;11.75;77.95;99612.97;5011697;28;20061;-95
2024/05/05 05:55:13;;;;;;;10.95;7.05;;;;;;;11.65;77.39;99605.69;5001435;28;20007;-96
2024/05/05 05:57:45;;;;;;;13.18;6.28;;;;;;;11.62;77.13;99598.94;5011053;28;20075;-95
2024/05/05 06:00:10;;;;;;;11.00;6.53;;;;;;;11.68;79.84;99599.72;5011876;28;20013;-94
2024/05/05 06:06:18;;;;;;;9.57;6.63;;;;;;;11.93;77.86;99601.63;4933846;29;20022;-94
2024/05/05 06:08:43;;;;;;;7.78;5.43;;;;;;;12.15;78.43;99614.03;4909866;29;20027;-96
2024/05/05 06:11:09;;;;;;;12.18;6.30;;;;;;;12.24;77.61;99602.41;4910170;29;20442;-95
2024/05/05 06:13:35;;;;;;;12.32;5.68;;;;;;;12.51;77.91;99612.88;4932671;28;20002;-95
2024/05/05 06:16:01;;;;;;;10.25;6.03;;;;;;;12.64;76.84;99600.66;5011696;28;20011;-96
2024/05/05 06:18:26;;;;;;;9.38;6.20;;;;;;;12.70;75.88;99582.50;5011219;28;19999;-95
2024/05/05 06:20:57;;;;;;;9.90;6.75;;;;;;;13.17;75.46;99610.94;5047430;28;19990;-96
2024/05/05 06:23:23;;;;;;;9.70;6.43;;;;;;;13.02;75.41;99605.63;4974507;28;19993;-95
2024/05/05 06:25:49;;;;;;;13.32;6.40;;;;;;;13.17;74.42;99612.81;4950199;28;20148;-95
2024/05/05 06:28:15;;;;;;;9.77;6.97;;;;;;;13.37;73.36;99617.34;4950242;28;20000;-95
2024/05/05 06:30:44;;;;;;;14.23;7.97;;;;;;;13.53;74.19;99616.16;4985928;28;20000;-95
2024/05/05 06:33:12;;;;;;;15.52;7.30;;;;;;;13.46;74.02;99612.94;4982642;28;19999;-94
2024/05/05 06:35:40;;;;;;;10.80;7.30;;;;;;;13.48;74.07;99594.53;5005238;28;20026;-95
2024/05/05 06:38:13;;;;;;;10.05;7.25;;;;;;;13.65;73.61;99610.34;5004801;28;20612;-96
2024/05/05 06:40:39;;;;;;;11.73;7.00;;;;;;;13.89;73.56;99627.47;5006478;28;20062;-96
2024/05/05 06:43:08;;;;;;;20.20;7.90;;;;;;;13.63;73.04;99629.56;5003732;28;19995;-96
2024/05/05 06:45:36;;;;;;;11.48;7.82;;;;;;;13.72;71.96;99603.53;5003502;28;20011;-96
2024/05/05 06:48:02;;;;;;;12.95;8.00;;;;;;;14.06;70.83;99623.53;5003990;28;20006;-94
2024/05/05 06:50:30;;;;;;;10.50;7.72;;;;;;;14.33;70.04;99618.38;5003505;28;19999;-94
2024/05/05 06:52:56;;;;;;;10.73;7.63;;;;;;;14.50;68.55;99626.06;5005369;28;20013;-94
2024/05/05 06:55:27;;;;;;;13.55;7.78;;;;;;;14.74;69.36;99611.72;5063318;28;20009;-96
2024/05/05 06:57:53;;;;;;;11.43;8.60;;;;;;;14.95;68.75;99623.91;5068564;28;20026;-95
2024/05/05 07:00:19;;;;;;;16.00;9.40;;;;;;;14.88;67.00;99615.34;5042979;28;20022;-95
2024/05/05 07:02:45;;;;;;;13.52;8.73;;;;;;;14.97;66.74;99607.38;5043095;28;20002;-94
2024/05/05 07:05:11;;;;;;;15.27;8.77;;;;;;;15.21;65.67;99618.16;5043396;28;20009;-94
2024/05/05 07:07:51;;;;;;;13.80;8.85;;;;;;;15.21;64.40;99626.31;5041985;28;20016;-96
2024/05/05 07:10:23;;;;;;;14.38;7.30;;;;;;;15.28;62.34;99612.38;5045867;27;20013;-96
2024/05/05 07:12:49;;;;;;;15.95;6.43;;;;;;;15.65;60.14;99614.25;5044960;28;20014;-95
2024/05/05 07:15:15;;;;;;;7.90;5.10;;;;;;;15.57;57.51;99607.56;5043851;28;20326;-95
2024/05/05 07:17:48;;;;;;;9.27;4.97;;;;;;;15.91;56.60;99630.13;5044688;28;19993;-96
2024/05/05 07:20:13;;;;;;;6.30;4.78;;;;;;;15.98;55.51;99619.72;5048125;27;20002;-96
2024/05/05 07:22:39;;;;;;;12.63;5.80;;;;;;;16.06;55.59;99605.44;5045055;28;20005;-96
2024/05/05 07:25:15;;;;;;;7.65;4.03;;;;;;;16.42;54.72;99628.44;5043271;28;20006;-96
2024/05/05 07:27:44;;;;;;;11.00;3.88;;;;;;;16.47;53.60;99609.28;5046552;28;20032;-96
2024/05/05 07:30:10;;;;;;;7.70;4.32;;;;;;;16.84;51.69;99607.50;5044784;28;19998;-96
2024/05/05 07:32:38;;;;;;;9.82;3.00;;;;;;;16.98;49.61;99602.84;5070370;28;20009;-96
2024/05/05 07:35:04;;;;;;;12.15;6.20;;;;;;;17.12;52.61;99608.22;5095742;28;20005;-96
2024/05/05 07:37:34;;;;;;;10.23;3.88;;;;;;;17.16;52.33;99618.22;5041609;28;20009;-96
2024/05/05 07:40:07;;;;;;;8.45;3.25;;;;;;;17.17;49.67;99597.25;5069276;28;20002;-96
2024/05/05 07:42:39;;;;;;;6.00;3.15;;;;;;;17.31;50.01;99608.09;5044148;28;20407;-96
2024/05/05 07:45:07;;;;;;;;;;;;;;;17.75;49.58;99620.13;5043993;28;20001;-96
2024/05/05 07:48:07;;;;;;;10.88;4.63;;;;;;;17.89;49.42;99593.66;5069970;28;20317;-96
2024/05/05 07:50:37;;;;;;;12.30;5.75;;;;;;;18.04;50.75;99599.81;5073060;28;20005;-96
2024/05/05 07:53:15;;;;;;;15.15;4.22;;;;;;;18.11;48.78;99581.09;5044916;28;20054;-95
2024/05/05 07:55:49;;;;;;;12.15;4.28;;;;;;;18.24;49.77;99598.44;5047363;28;19993;-95
2024/05/05 08:01:27;;;;;;;9.93;4.85;;;;;;;18.05;47.74;99587.78;5076239;28;20010;-95
2024/05/05 08:04:00;;;;;;;8.65;4.03;;;;;;;18.14;48.40;99584.00;5043229;28;20002;-94
2024/05/05 08:06:41;;;;;;;8.23;3.30;;;;;;;18.29;47.88;99579.25;5046429;28;20354;-96
2024/05/05 08:09:07;;;;;;;7.05;3.50;;;;;;;18.39;47.95;99584.41;5046127;28;20002;-95
2024/05/05 08:11:37;;;;;;;8.10;3.30;;;;;;;18.41;47.75;99592.25;5042798;28;20008;-96
2024/05/05 08:14:14;;;;;;;7.22;3.05;;;;;;;18.58;47.17;99592.34;5045684;28;20573;-95
2024/05/05 08:16:50;;;;;;;;;;;;;;;;;;;;;
2024/05/05 08:19:21;;;;;;;7.68;3.08;;;;;;;19.09;46.81;99611.88;5075180;28;20006;-95
2024/05/05 08:21:58;;;;;;;7.55;3.10;;;;;;;19.06;44.90;99582.50;5046393;28;20006;-96
2024/05/05 08:24:48;;;;;;;6.00;2.67;;;;;;;18.96;45.79;99572.69;5055374;27;20010;-96
2024/05/05 08:30:18;;;;;;;4.70;2.97;;;;;;;19.38;45.55;99597.59;5151757;27;20033;-96
2024/05/05 08:33:37;;;;;;;8.68;3.83;;;;;;;19.53;45.17;99599.84;5117513;27;20016;-96
2024/05/05 08:36:33;;;;;;;4.70;3.00;;;;;;;19.18;45.90;99563.56;5128720;27;20025;-96
2024/05/05 08:39:16;;;;;;;6.30;3.35;;;;;;;19.26;46.31;99590.06;5108564;27;20022;-96
2024/05/05 08:41:44;;;;;;;13.80;3.67;;;;;;;19.17;43.97;99556.50;5106422;27;20005;-95
2024/05/05 08:44:12;;;;;;;10.02;2.80;;;;;;;19.31;42.70;99578.19;5076868;27;20001;-95
2024/05/05 08:46:50;;;;;;;;;;;;;;;;;;;;;
2024/05/05 08:49:41;;;;;;;8.85;2.55;;;;;;;19.09;43.17;99573.66;5107621;27;20001;-95
2024/05/05 08:52:12;;;;;;;6.00;3.07;;;;;;;19.20;43.60;99574.19;5104189;27;20005;-95
2024/05/05 08:54:48;;;;;;;;;;;;;;;;;;;;;
2024/05/05 08:57:18;;;;;;;7.40;3.10;;;;;;;19.07;44.14;99563.09;5105036;27;20009;-96
2024/05/05 08:59:56;;;;;;;11.05;3.10;;;;;;;19.01;46.03;99558.91;5080845;27;20005;-96
2024/05/05 09:02:22;;;;;;;5.28;2.53;;;;;;;19.09;44.52;99557.28;5105192;27;20009;-95
2024/05/05 09:05:11;;;;;;;;;;;;;;;;;;;;;
2024/05/05 09:07:51;;;;;;;4.95;2.63;;;;;;;19.11;41.26;99553.13;5133818;27;20004;-94
2024/05/05 09:10:28;;;;;;;6.53;2.67;;;;;;;19.28;40.08;99546.03;5077184;27;20013;-96
2024/05/05 09:13:09;;;;;;;8.23;2.70;;;;;;;19.31;41.84;99550.88;5103980;27;20326;-95
2024/05/05 09:16:00;;;;;;;3.92;2.38;;;;;;;19.34;39.76;99550.22;5080241;27;20012;-96
2024/05/05 09:18:49;;;;;;;;;;;;;;;;;;;;;
2024/05/05 09:21:18;;;;;;;5.72;2.88;;;;;;;19.76;38.12;99561.44;5131345;27;20005;-95
2024/05/05 09:24:06;;;;;;;;;;;;;;;;;;;;;
2024/05/05 09:29:11;;;;;;;6.60;2.55;;;;;;;19.52;39.55;99527.22;5130545;27;20059;-96
2024/05/05 09:34:36;;;;;;;3.25;2.50;;;;;;;19.39;39.08;99517.31;5341602;22;20021;-96
2024/05/05 09:37:28;;;;;;;4.80;2.30;;;;;;;19.68;38.44;99534.91;5079349;27;19993;-96
2024/05/05 09:39:56;;;;;;;5.30;2.38;;;;;;;19.82;38.07;99513.69;5109111;27;20005;-96
2024/05/05 09:43:12;;;;;;;;;;;;;;;;;;;;;
2024/05/05 09:45:59;;;;;;;4.93;2.10;;;;;;;19.88;36.04;99519.75;5158055;27;20002;-96
2024/05/05 09:48:40;;;;;;;;;;;;;;;;;;;;;
2024/05/05 09:55:24;;;;;;;;;;;;;;;;;;;;;
2024/05/05 09:57:54;;;;;;;3.10;1.95;;;;;;;20.36;34.26;99494.78;5121110;27;20005;-96
2024/05/05 10:01:38;;;;;;;;;;;;;;;;;;;;;
2024/05/05 10:03:46;;;;;;;6.18;2.20;;;;;;;20.49;35.80;99516.75;5005639;28;19999;-96
2024/05/05 10:06:15;;;;;;;4.63;2.35;;;;;;;20.34;36.58;99491.59;5044453;28;20511;-95
2024/05/05 10:08:46;;;;;;;4.35;2.25;;;;;;;20.35;37.29;99506.84;5069728;28;20051;-95
2024/05/05 10:12:12;;;;;;;;;;;;;;;;;;;;;
2024/05/05 10:14:42;;;;;;;2.78;1.67;;;;;;;20.48;33.25;99506.94;5090854;28;20001;-95
2024/05/05 10:17:45;;;;;;;3.25;1.83;;;;;;;20.37;33.31;99477.22;5046103;28;20070;-96
2024/05/05 10:20:21;;;;;;;3.72;1.92;;;;;;;20.46;33.72;99507.28;5071626;28;20022;-95
2024/05/05 10:23:11;;;;;;;6.18;2.20;;;;;;;20.43;35.35;99491.53;5075866;27;19998;-96
2024/05/05 10:26:31;;;;;;;5.00;2.75;;;;;;;20.26;36.14;99477.97;5106291;27;20013;-96
2024/05/05 10:29:18;;;;;;;3.22;2.40;;;;;;;20.31;34.86;99494.16;5111180;27;20008;-96
2024/05/05 10:36:22;;;;;;;;;;;;;;;;;;;;;
2024/05/05 10:39:28;;;;;;;;;;;;;;;;;;;;;
2024/05/05 10:42:45;;;;;;;4.90;2.30;;;;;;;20.11;33.63;99471.13;4941833;29;20058;-96
2024/05/05 10:46:13;;;;;;;5.40;2.33;;;;;;;20.36;33.98;99483.06;4977146;28;20006;-96
2024/05/05 10:48:47;;;;;;;6.05;2.08;;;;;;;20.58;34.41;99490.16;4969084;28;20478;-96
2024/05/05 10:51:13;;;;;;;3.38;2.00;;;;;;;20.47;33.31;99480.72;4941123;29;20330;-95
2024/05/05 10:53:49;;;;;;;4.85;2.20;;;;;;;20.59;34.29;99494.53;4975337;28;20000;-95
2024/05/05 10:59:36;;;;;;;7.65;2.40;;;;;;;20.84;34.92;99491.94;4997353;28;19996;-96
2024/05/05 11:02:05;;;;;;;8.75;2.50;;;;;;;20.87;34.47;99461.94;5012307;28;19999;-96
2024/05/05 11:04:50;;;;;;;4.70;2.20;;;;;;;20.91;33.53;99454.66;5064237;28;20003;-95
2024/05/05 11:08:25;;;;;;;;;;;;;;;;;;;;;
2024/05/05 11:15:42;;;;;;;;;;;;;;;;;;;;;
2024/05/05 11:18:38;;;;;;;;;;;;;;;;;;;;;
2024/05/05 11:21:23;;;;;;;3.92;1.95;;;;;;;20.76;35.23;99477.16;5111710;27;20001;-96
2024/05/05 11:24:22;;;;;;;;;;;;;;;;;;;;;
2024/05/05 11:30:58;;;;;;;4.45;2.20;;;;;;;20.93;34.92;99466.06;5111448;27;20017;-96
2024/05/05 11:37:52;;;;;;;;;;;;;;;;;;;;;
2024/05/05 11:41:12;;;;;;;5.03;2.10;;;;;;;20.63;34.89;99426.22;5133456;27;19997;-96
2024/05/05 11:44:10;;;;;;;5.15;1.83;;;;;;;20.76;35.23;99447.84;5128563;27;19992;-96
2024/05/05 11:47:48;;;;;;;;;;;;;;;;;;;;;
2024/05/05 11:54:36;;;;;;;;;;;;;;;;;;;;;
2024/05/05 11:57:44;;;;;;;;;;;;;;;;;;;;;
2024/05/05 12:00:23;;;;;;;6.47;1.88;;;;;;;21.03;34.23;99415.59;4980733;28;20000;-96
2024/05/05 12:03:00;;;;;;;5.82;2.35;;;;;;;21.07;33.62;99413.78;4971794;28;20025;-96
2024/05/05 12:06:38;;;;;;;;;;;;;;;;;;;;;
2024/05/05 12:09:59;;;;;;;2.90;1.88;;;;;;;21.01;33.33;99395.16;4905210;29;19998;-96
2024/05/05 12:12:58;;;;;;;;;;;;;;;;;;;;;
2024/05/05 12:15:38;;;;;;;;;;;;;;;;;;;;;
2024/05/05 12:22:18;;;;;;;;;;;;;;;;;;;;;
2024/05/05 12:31:12;;;;;;;;;;;;;;;;;;;;;
2024/05/05 12:34:23;;;;;;;;;;;;;;;;;;;;;
2024/05/05 12:36:57;;;;;;;4.25;2.10;;;;;;;22.03;33.26;99381.69;4978281;28;20015;-96
2024/05/05 12:40:17;;;;;;;4.53;2.10;;;;;;;22.07;33.34;99390.81;4998267;28;19988;-93
2024/05/05 12:42:55;;;;;;;6.32;2.15;;;;;;;22.00;32.39;99367.53;4923955;29;20030;-94
2024/05/05 12:45:51;;;;;;;;;;;;;;;;;;;;;
2024/05/05 12:48:17;;;;;;;3.50;2.13;;;;;;;21.80;35.16;99358.28;4928173;29;20022;-96
2024/05/05 12:54:05;;;;;;;5.93;2.30;;;;;;;22.05;34.04;99374.72;4823950;29;19997;-96
2024/05/05 12:56:56;;;;;;;3.60;2.35;;;;;;;22.30;33.86;99375.47;4848493;29;20053;-96
2024/05/05 13:07:03;;;;;;;;;;;;;;;;;;;;;
2024/05/05 13:09:53;;;;;;;4.57;1.95;;;;;;;22.60;33.35;99337.53;4847144;29;20003;-96
2024/05/05 13:15:57;;;;;;;8.32;2.47;;;;;;;22.98;32.99;99330.69;4877576;29;20009;-96
2024/05/05 13:19:01;;;;;;;;;;;;;;;;;;;;;
2024/05/05 13:21:48;;;;;;;;;;;;;;;;;;;;;
2024/05/05 13:24:40;;;;;;;8.27;2.17;;;;;;;23.05;31.94;99345.81;4941164;28;19997;-96
2024/05/05 13:27:20;;;;;;;;;;;;;;;;;;;;;
2024/05/05 13:29:50;;;;;;;2.92;1.83;;;;;;;22.90;31.51;99320.69;4942384;29;19924;-95
2024/05/05 13:33:07;;;;;;;5.97;2.00;;;;;;;22.75;31.53;99314.03;4918656;29;20040;-96
2024/05/05 13:36:06;;;;;;;4.97;1.77;;;;;;;22.80;33.13;99302.78;4911848;29;20585;-96
2024/05/05 13:38:54;;;;;;;3.25;1.88;;;;;;;23.19;32.18;99311.25;4919537;29;20013;-96
2024/05/05 13:41:31;;;;;;;3.85;2.40;;;;;;;23.27;32.56;99314.19;4880199;28;20014;-96
2024/05/05 13:44:45;;;;;;;2.67;1.90;;;;;;;23.55;31.78;99312.13;4861724;29;20003;-96
2024/05/05 13:48:05;;;;;;;9.05;2.75;;;;;;;23.82;31.34;99300.56;4816300;29;19994;-96
2024/05/05 13:54:28;;;;;;;;;;;;;;;;;;;;;
2024/05/05 14:01:19;;;;;;;;;;;;;;;;;;;;;
2024/05/05 14:08:10;;;;;;;;;;;;;;;;;;;;;
2024/05/05 14:11:37;;;;;;;10.38;3.35;;;;;;;25.97;28.54;99296.16;4768633;29;20109;-96
2024/05/05 14:17:52;;;;;;;;;;;;;;;;;;;;;
2024/05/05 14:21:07;;;;;;;;;;;;;;;;;;;;;